Woodland Park, Colorado
Current Conditions -  °F | °C
As of 10:58 AM on Sunday 25 Jan 2015 (Local Time) from KAFF Reporting Station
Clear Clear  
Wind Chill: 39°   Ceiling: Unl
Heat Index: 43°   Visibility: 10mi
Dew Point: 26°   Wind: 6mph
Humidity: 51%   Direction: 180°S
Pressure: 30.21"   Gusts: NA
Location:  38.99°N, 105.05°W
Report Text: KAFF 251758Z AUTO 18005KT 10SM CLR 06/M03 A3021 RMK AO2 SLP234 T00601034 10060 21049 52012
Loading
Personal Weather Stations






























Interactive Weather Map New forecast layout! Learn more

10-Day Weather Forecast

Advertisements
Track Severe Weather on mobile